sensor_id;sensor_type;location;lat;lon;timestamp;temperature;humidity
56300;DHT22;42209;6.376;-10.782;2023-09-08T00:02:11;23.50;83.10
56300;DHT22;42209;6.376;-10.782;2023-09-08T00:04:39;23.60;83.20
56300;DHT22;42209;6.376;-10.782;2023-09-08T00:07:08;23.70;82.90
56300;DHT22;42209;6.376;-10.782;2023-09-08T00:09:36;23.80;82.60
56300;DHT22;42209;6.376;-10.782;2023-09-08T00:12:05;23.60;76.50
56300;DHT22;42209;6.376;-10.782;2023-09-08T00:14:33;23.30;72.60
56300;DHT22;42209;6.376;-10.782;2023-09-08T00:17:02;23.10;70.10
56300;DHT22;42209;6.376;-10.782;2023-09-08T00:19:31;22.90;67.90
56300;DHT22;42209;6.376;-10.782;2023-09-08T00:22:00;22.70;66.70
56300;DHT22;42209;6.376;-10.782;2023-09-08T00:24:28;22.60;65.60
56300;DHT22;42209;6.376;-10.782;2023-09-08T00:26:57;22.60;70.40
56300;DHT22;42209;6.376;-10.782;2023-09-08T00:29:25;22.80;75.50
56300;DHT22;42209;6.376;-10.782;2023-09-08T00:31:54;22.90;77.30
56300;DHT22;42209;6.376;-10.782;2023-09-08T00:34:23;23.00;79.00
56300;DHT22;42209;6.376;-10.782;2023-09-08T00:36:51;23.10;80.50
56300;DHT22;42209;6.376;-10.782;2023-09-08T00:39:20;23.10;81.50
56300;DHT22;42209;6.376;-10.782;2023-09-08T00:41:49;23.30;82.60
56300;DHT22;42209;6.376;-10.782;2023-09-08T00:44:17;23.30;83.10
56300;DHT22;42209;6.376;-10.782;2023-09-08T00:46:46;23.30;83.70
56300;DHT22;42209;6.376;-10.782;2023-09-08T00:49:15;23.40;84.60
56300;DHT22;42209;6.376;-10.782;2023-09-08T00:51:44;23.50;84.50
56300;DHT22;42209;6.376;-10.782;2023-09-08T00:54:12;23.60;84.00
56300;DHT22;42209;6.376;-10.782;2023-09-08T00:56:41;23.70;84.50
56300;DHT22;42209;6.376;-10.782;2023-09-08T00:59:09;23.70;84.30
56300;DHT22;42209;6.376;-10.782;2023-09-08T01:01:37;23.70;80.40
56300;DHT22;42209;6.376;-10.782;2023-09-08T01:04:07;23.50;75.30
56300;DHT22;42209;6.376;-10.782;2023-09-08T01:06:36;23.20;72.30
56300;DHT22;42209;6.376;-10.782;2023-09-08T01:09:05;22.90;70.30
56300;DHT22;42209;6.376;-10.782;2023-09-08T01:11:34;22.80;68.30
56300;DHT22;42209;6.376;-10.782;2023-09-08T01:14:03;22.70;66.90
56300;DHT22;42209;6.376;-10.782;2023-09-08T01:16:31;22.60;67.40
56300;DHT22;42209;6.376;-10.782;2023-09-08T01:19:00;22.70;73.50
56300;DHT22;42209;6.376;-10.782;2023-09-08T01:27:21;23.00;80.70
56300;DHT22;42209;6.376;-10.782;2023-09-08T01:29:53;23.10;81.90
56300;DHT22;42209;6.376;-10.782;2023-09-08T01:32:22;23.20;82.90
56300;DHT22;42209;6.376;-10.782;2023-09-08T01:34:52;23.30;83.70
56300;DHT22;42209;6.376;-10.782;2023-09-08T01:37:23;23.30;84.30
56300;DHT22;42209;6.376;-10.782;2023-09-08T01:39:51;23.40;84.70
56300;DHT22;42209;6.376;-10.782;2023-09-08T01:42:20;23.50;84.30
56300;DHT22;42209;6.376;-10.782;2023-09-08T01:44:49;23.50;85.30
56300;DHT22;42209;6.376;-10.782;2023-09-08T01:47:18;23.60;85.00
56300;DHT22;42209;6.376;-10.782;2023-09-08T01:49:47;23.70;85.80
56300;DHT22;42209;6.376;-10.782;2023-09-08T01:52:15;23.70;82.30
56300;DHT22;42209;6.376;-10.782;2023-09-08T01:54:44;23.50;76.70
56300;DHT22;42209;6.376;-10.782;2023-09-08T01:57:12;23.20;73.10
56300;DHT22;42209;6.376;-10.782;2023-09-08T01:59:41;23.00;70.90
56300;DHT22;42209;6.376;-10.782;2023-09-08T02:02:09;22.80;69.10
56300;DHT22;42209;6.376;-10.782;2023-09-08T02:04:38;22.70;67.70
56300;DHT22;42209;6.376;-10.782;2023-09-08T02:07:07;22.60;66.30
56300;DHT22;42209;6.376;-10.782;2023-09-08T02:09:37;22.60;68.90
56300;DHT22;42209;6.376;-10.782;2023-09-08T02:12:06;22.70;74.70
56300;DHT22;42209;6.376;-10.782;2023-09-08T02:14:35;22.80;77.30
56300;DHT22;42209;6.376;-10.782;2023-09-08T02:17:03;23.00;79.00
56300;DHT22;42209;6.376;-10.782;2023-09-08T02:19:32;23.00;80.30
56300;DHT22;42209;6.376;-10.782;2023-09-08T02:22:01;23.10;81.40
56300;DHT22;42209;6.376;-10.782;2023-09-08T02:24:29;23.20;82.40
56300;DHT22;42209;6.376;-10.782;2023-09-08T02:26:58;23.20;83.40
56300;DHT22;42209;6.376;-10.782;2023-09-08T02:29:26;23.30;84.10
56300;DHT22;42209;6.376;-10.782;2023-09-08T02:31:55;23.30;84.60
56300;DHT22;42209;6.376;-10.782;2023-09-08T02:34:24;23.40;84.70
56300;DHT22;42209;6.376;-10.782;2023-09-08T02:36:52;23.50;84.70
56300;DHT22;42209;6.376;-10.782;2023-09-08T02:39:24;23.50;85.20
56300;DHT22;42209;6.376;-10.782;2023-09-08T02:41:54;23.70;85.10
56300;DHT22;42209;6.376;-10.782;2023-09-08T02:44:22;23.70;84.80
56300;DHT22;42209;6.376;-10.782;2023-09-08T02:46:51;23.70;81.30
56300;DHT22;42209;6.376;-10.782;2023-09-08T02:49:20;23.40;76.20
56300;DHT22;42209;6.376;-10.782;2023-09-08T02:51:48;23.20;73.10
56300;DHT22;42209;6.376;-10.782;2023-09-08T02:54:17;22.90;70.90
56300;DHT22;42209;6.376;-10.782;2023-09-08T02:56:45;22.80;69.00
56300;DHT22;42209;6.376;-10.782;2023-09-08T02:59:14;22.60;67.50
56300;DHT22;42209;6.376;-10.782;2023-09-08T03:01:43;22.60;68.80
56300;DHT22;42209;6.376;-10.782;2023-09-08T03:04:11;22.70;74.00
56300;DHT22;42209;6.376;-10.782;2023-09-08T03:06:41;22.80;77.20
56300;DHT22;42209;6.376;-10.782;2023-09-08T03:09:09;22.90;78.90
56300;DHT22;42209;6.376;-10.782;2023-09-08T03:11:37;23.10;80.60
56300;DHT22;42209;6.376;-10.782;2023-09-08T03:14:07;23.10;82.10
56300;DHT22;42209;6.376;-10.782;2023-09-08T03:16:35;23.20;83.10
56300;DHT22;42209;6.376;-10.782;2023-09-08T03:19:04;23.20;83.60
56300;DHT22;42209;6.376;-10.782;2023-09-08T03:21:32;23.30;84.70
56300;DHT22;42209;6.376;-10.782;2023-09-08T03:24:01;23.30;85.00
56300;DHT22;42209;6.376;-10.782;2023-09-08T03:26:29;23.40;85.60
56300;DHT22;42209;6.376;-10.782;2023-09-08T03:29:00;23.50;85.70
56300;DHT22;42209;6.376;-10.782;2023-09-08T03:31:31;23.50;85.40
56300;DHT22;42209;6.376;-10.782;2023-09-08T03:34:00;23.60;85.60
56300;DHT22;42209;6.376;-10.782;2023-09-08T03:36:29;23.70;85.30
56300;DHT22;42209;6.376;-10.782;2023-09-08T03:38:58;23.70;85.10
56300;DHT22;42209;6.376;-10.782;2023-09-08T03:41:27;23.70;79.50
56300;DHT22;42209;6.376;-10.782;2023-09-08T03:43:55;23.30;74.70
56300;DHT22;42209;6.376;-10.782;2023-09-08T03:46:24;23.10;71.40
56300;DHT22;42209;6.376;-10.782;2023-09-08T03:48:53;22.90;69.50
56300;DHT22;42209;6.376;-10.782;2023-09-08T03:51:21;22.70;68.50
56300;DHT22;42209;6.376;-10.782;2023-09-08T03:53:51;22.70;74.00
56300;DHT22;42209;6.376;-10.782;2023-09-08T03:56:19;22.80;77.40
56300;DHT22;42209;6.376;-10.782;2023-09-08T03:58:48;22.90;79.50
56300;DHT22;42209;6.376;-10.782;2023-09-08T04:01:16;23.00;81.00
56300;DHT22;42209;6.376;-10.782;2023-09-08T04:03:45;23.10;81.90
56300;DHT22;42209;6.376;-10.782;2023-09-08T04:06:15;23.10;83.30
56300;DHT22;42209;6.376;-10.782;2023-09-08T04:08:43;23.20;83.90
56300;DHT22;42209;6.376;-10.782;2023-09-08T04:11:12;23.20;84.10
56300;DHT22;42209;6.376;-10.782;2023-09-08T04:13:41;23.30;85.00
56300;DHT22;42209;6.376;-10.782;2023-09-08T04:16:09;23.40;85.00
56300;DHT22;42209;6.376;-10.782;2023-09-08T04:18:38;23.50;84.90
56300;DHT22;42209;6.376;-10.782;2023-09-08T04:21:07;23.60;85.00
56300;DHT22;42209;6.376;-10.782;2023-09-08T04:23:35;23.60;84.80
56300;DHT22;42209;6.376;-10.782;2023-09-08T04:26:04;23.70;84.60
56300;DHT22;42209;6.376;-10.782;2023-09-08T04:28:33;23.70;82.20
56300;DHT22;42209;6.376;-10.782;2023-09-08T04:31:02;23.50;76.20
56300;DHT22;42209;6.376;-10.782;2023-09-08T04:33:30;23.20;72.70
56300;DHT22;42209;6.376;-10.782;2023-09-08T04:35:59;22.90;70.30
56300;DHT22;42209;6.376;-10.782;2023-09-08T04:38:27;22.70;68.40
56300;DHT22;42209;6.376;-10.782;2023-09-08T04:40:56;22.60;68.10
56300;DHT22;42209;6.376;-10.782;2023-09-08T04:43:25;22.70;74.40
56300;DHT22;42209;6.376;-10.782;2023-09-08T04:45:53;22.80;77.30
56300;DHT22;42209;6.376;-10.782;2023-09-08T04:48:22;22.90;79.50
56300;DHT22;42209;6.376;-10.782;2023-09-08T04:50:51;23.00;80.80
56300;DHT22;42209;6.376;-10.782;2023-09-08T04:53:19;23.10;81.70
56300;DHT22;42209;6.376;-10.782;2023-09-08T04:55:48;23.10;82.70
56300;DHT22;42209;6.376;-10.782;2023-09-08T04:58:18;23.20;83.80
56300;DHT22;42209;6.376;-10.782;2023-09-08T05:00:49;23.30;84.40
56300;DHT22;42209;6.376;-10.782;2023-09-08T05:03:17;23.30;84.70
56300;DHT22;42209;6.376;-10.782;2023-09-08T05:05:46;23.40;84.80
56300;DHT22;42209;6.376;-10.782;2023-09-08T05:08:15;23.40;84.90
56300;DHT22;42209;6.376;-10.782;2023-09-08T05:10:47;23.50;84.70
56300;DHT22;42209;6.376;-10.782;2023-09-08T05:13:16;23.60;84.40
56300;DHT22;42209;6.376;-10.782;2023-09-08T05:15:59;23.70;84.10
56300;DHT22;42209;6.376;-10.782;2023-09-08T05:18:31;23.70;80.50
56300;DHT22;42209;6.376;-10.782;2023-09-08T05:20:59;23.40;75.20
56300;DHT22;42209;6.376;-10.782;2023-09-08T05:23:27;23.10;72.00
56300;DHT22;42209;6.376;-10.782;2023-09-08T05:25:56;22.90;70.20
56300;DHT22;42209;6.376;-10.782;2023-09-08T05:28:24;22.70;67.90
56300;DHT22;42209;6.376;-10.782;2023-09-08T05:30:54;22.60;68.70
56300;DHT22;42209;6.376;-10.782;2023-09-08T05:33:22;22.70;75.50
56300;DHT22;42209;6.376;-10.782;2023-09-08T05:35:52;22.80;77.90
56300;DHT22;42209;6.376;-10.782;2023-09-08T05:38:20;22.90;79.40
56300;DHT22;42209;6.376;-10.782;2023-09-08T05:40:48;23.00;80.70
56300;DHT22;42209;6.376;-10.782;2023-09-08T05:43:17;23.10;82.10
56300;DHT22;42209;6.376;-10.782;2023-09-08T05:45:45;23.10;82.90
56300;DHT22;42209;6.376;-10.782;2023-09-08T05:48:14;23.20;83.70
56300;DHT22;42209;6.376;-10.782;2023-09-08T05:50:43;23.20;84.40
56300;DHT22;42209;6.376;-10.782;2023-09-08T05:53:12;23.30;84.40
56300;DHT22;42209;6.376;-10.782;2023-09-08T05:55:41;23.40;84.60
56300;DHT22;42209;6.376;-10.782;2023-09-08T05:58:10;23.40;84.40
56300;DHT22;42209;6.376;-10.782;2023-09-08T06:00:38;23.50;83.90
56300;DHT22;42209;6.376;-10.782;2023-09-08T06:03:06;23.60;84.10
56300;DHT22;42209;6.376;-10.782;2023-09-08T06:05:35;23.70;83.90
56300;DHT22;42209;6.376;-10.782;2023-09-08T06:08:05;23.80;83.70
56300;DHT22;42209;6.376;-10.782;2023-09-08T06:10:39;23.60;76.80
56300;DHT22;42209;6.376;-10.782;2023-09-08T06:13:07;23.30;72.90
56300;DHT22;42209;6.376;-10.782;2023-09-08T06:15:36;23.00;70.00
56300;DHT22;42209;6.376;-10.782;2023-09-08T06:18:05;22.70;67.60
56300;DHT22;42209;6.376;-10.782;2023-09-08T06:20:33;22.70;69.90
56300;DHT22;42209;6.376;-10.782;2023-09-08T06:23:02;22.70;76.40
56300;DHT22;42209;6.376;-10.782;2023-09-08T06:25:30;22.80;78.90
56300;DHT22;42209;6.376;-10.782;2023-09-08T06:27:59;23.00;80.70
56300;DHT22;42209;6.376;-10.782;2023-09-08T06:30:27;23.10;82.10
56300;DHT22;42209;6.376;-10.782;2023-09-08T06:32:56;23.10;83.00
56300;DHT22;42209;6.376;-10.782;2023-09-08T06:35:26;23.20;84.10
56300;DHT22;42209;6.376;-10.782;2023-09-08T06:37:55;23.20;85.00
56300;DHT22;42209;6.376;-10.782;2023-09-08T06:40:24;23.30;85.80
56300;DHT22;42209;6.376;-10.782;2023-09-08T06:42:52;23.40;86.10
56300;DHT22;42209;6.376;-10.782;2023-09-08T06:45:40;23.50;85.90
56300;DHT22;42209;6.376;-10.782;2023-09-08T06:48:09;23.60;85.80
56300;DHT22;42209;6.376;-10.782;2023-09-08T06:50:37;23.70;85.70
56300;DHT22;42209;6.376;-10.782;2023-09-08T06:53:06;23.70;85.80
56300;DHT22;42209;6.376;-10.782;2023-09-08T06:55:35;23.60;79.60
56300;DHT22;42209;6.376;-10.782;2023-09-08T06:58:08;23.30;76.10
56300;DHT22;42209;6.376;-10.782;2023-09-08T07:00:37;23.10;72.80
56300;DHT22;42209;6.376;-10.782;2023-09-08T07:03:05;22.80;70.70
56300;DHT22;42209;6.376;-10.782;2023-09-08T07:05:35;22.70;69.20
56300;DHT22;42209;6.376;-10.782;2023-09-08T07:08:04;22.50;68.40
56300;DHT22;42209;6.376;-10.782;2023-09-08T07:10:32;22.70;73.30
56300;DHT22;42209;6.376;-10.782;2023-09-08T07:13:01;22.90;79.50
56300;DHT22;42209;6.376;-10.782;2023-09-08T07:15:29;23.00;81.60
56300;DHT22;42209;6.376;-10.782;2023-09-08T07:17:58;23.10;82.70
56300;DHT22;42209;6.376;-10.782;2023-09-08T07:20:26;23.10;83.60
56300;DHT22;42209;6.376;-10.782;2023-09-08T07:22:55;23.20;84.20
56300;DHT22;42209;6.376;-10.782;2023-09-08T07:25:26;23.20;85.40
56300;DHT22;42209;6.376;-10.782;2023-09-08T07:27:55;23.30;86.30
56300;DHT22;42209;6.376;-10.782;2023-09-08T07:30:26;23.30;86.50
56300;DHT22;42209;6.376;-10.782;2023-09-08T07:32:56;23.40;86.20
56300;DHT22;42209;6.376;-10.782;2023-09-08T07:35:25;23.40;87.60
56300;DHT22;42209;6.376;-10.782;2023-09-08T07:37:53;23.50;87.60
56300;DHT22;42209;6.376;-10.782;2023-09-08T07:40:22;23.60;86.50
56300;DHT22;42209;6.376;-10.782;2023-09-08T07:42:51;23.60;86.40
56300;DHT22;42209;6.376;-10.782;2023-09-08T07:45:22;23.70;85.70
56300;DHT22;42209;6.376;-10.782;2023-09-08T07:47:50;23.70;85.20
56300;DHT22;42209;6.376;-10.782;2023-09-08T07:52:50;23.40;76.20
56300;DHT22;42209;6.376;-10.782;2023-09-08T07:55:18;23.20;74.00
56300;DHT22;42209;6.376;-10.782;2023-09-08T07:57:46;23.10;72.10
56300;DHT22;42209;6.376;-10.782;2023-09-08T08:00:15;23.00;70.40
56300;DHT22;42209;6.376;-10.782;2023-09-08T08:02:51;22.90;69.50
56300;DHT22;42209;6.376;-10.782;2023-09-08T08:05:21;22.90;69.30
56300;DHT22;42209;6.376;-10.782;2023-09-08T08:07:50;22.80;69.60
56300;DHT22;42209;6.376;-10.782;2023-09-08T08:10:19;22.80;69.50
56300;DHT22;42209;6.376;-10.782;2023-09-08T08:12:47;22.80;69.30
56300;DHT22;42209;6.376;-10.782;2023-09-08T08:15:15;22.90;69.90
56300;DHT22;42209;6.376;-10.782;2023-09-08T08:17:44;22.80;69.60
56300;DHT22;42209;6.376;-10.782;2023-09-08T08:20:13;22.80;69.40
56300;DHT22;42209;6.376;-10.782;2023-09-08T08:22:41;22.80;69.00
56300;DHT22;42209;6.376;-10.782;2023-09-08T08:25:10;22.80;69.10
56300;DHT22;42209;6.376;-10.782;2023-09-08T08:27:40;22.80;69.20
56300;DHT22;42209;6.376;-10.782;2023-09-08T08:30:08;22.80;68.50
56300;DHT22;42209;6.376;-10.782;2023-09-08T08:32:37;22.80;68.60
56300;DHT22;42209;6.376;-10.782;2023-09-08T08:35:05;22.80;68.10
56300;DHT22;42209;6.376;-10.782;2023-09-08T08:37:34;22.70;68.20
56300;DHT22;42209;6.376;-10.782;2023-09-08T08:40:02;22.70;67.50
56300;DHT22;42209;6.376;-10.782;2023-09-08T08:42:32;22.70;67.60
56300;DHT22;42209;6.376;-10.782;2023-09-08T08:45:01;22.70;67.00
56300;DHT22;42209;6.376;-10.782;2023-09-08T08:47:30;22.70;66.80
56300;DHT22;42209;6.376;-10.782;2023-09-08T08:49:59;22.70;66.60
56300;DHT22;42209;6.376;-10.782;2023-09-08T08:52:29;22.70;66.80
56300;DHT22;42209;6.376;-10.782;2023-09-08T08:54:59;22.70;66.00
56300;DHT22;42209;6.376;-10.782;2023-09-08T08:57:28;22.70;67.60
56300;DHT22;42209;6.376;-10.782;2023-09-08T08:59:57;22.70;65.80
56300;DHT22;42209;6.376;-10.782;2023-09-08T09:02:28;22.70;66.00
56300;DHT22;42209;6.376;-10.782;2023-09-08T09:04:57;22.60;64.90
56300;DHT22;42209;6.376;-10.782;2023-09-08T09:07:25;22.60;65.20
56300;DHT22;42209;6.376;-10.782;2023-09-08T09:09:55;22.60;64.90
56300;DHT22;42209;6.376;-10.782;2023-09-08T09:12:24;22.60;64.70
56300;DHT22;42209;6.376;-10.782;2023-09-08T09:14:53;22.60;64.90
56300;DHT22;42209;6.376;-10.782;2023-09-08T09:17:22;22.60;67.50
56300;DHT22;42209;6.376;-10.782;2023-09-08T09:19:50;22.60;65.60
56300;DHT22;42209;6.376;-10.782;2023-09-08T09:22:21;22.70;65.60
56300;DHT22;42209;6.376;-10.782;2023-09-08T09:24:50;22.70;66.80
56300;DHT22;42209;6.376;-10.782;2023-09-08T09:27:18;22.70;67.70
56300;DHT22;42209;6.376;-10.782;2023-09-08T09:29:50;22.70;67.10
56300;DHT22;42209;6.376;-10.782;2023-09-08T09:32:23;22.70;67.20
56300;DHT22;42209;6.376;-10.782;2023-09-08T09:34:54;22.70;66.50
56300;DHT22;42209;6.376;-10.782;2023-09-08T09:37:23;22.70;68.00
56300;DHT22;42209;6.376;-10.782;2023-09-08T09:39:53;22.60;66.50
56300;DHT22;42209;6.376;-10.782;2023-09-08T09:42:24;22.40;64.90
56300;DHT22;42209;6.376;-10.782;2023-09-08T09:44:53;22.10;66.20
56300;DHT22;42209;6.376;-10.782;2023-09-08T09:47:21;22.20;72.10
56300;DHT22;42209;6.376;-10.782;2023-09-08T09:49:50;22.40;75.00
56300;DHT22;42209;6.376;-10.782;2023-09-08T09:52:22;22.50;77.60
56300;DHT22;42209;6.376;-10.782;2023-09-08T09:54:54;22.60;79.50
56300;DHT22;42209;6.376;-10.782;2023-09-08T09:57:23;22.70;81.10
56300;DHT22;42209;6.376;-10.782;2023-09-08T09:59:52;22.80;82.90
56300;DHT22;42209;6.376;-10.782;2023-09-08T10:02:22;22.90;83.40
56300;DHT22;42209;6.376;-10.782;2023-09-08T10:04:53;22.90;84.50
56300;DHT22;42209;6.376;-10.782;2023-09-08T10:07:22;23.00;85.50
56300;DHT22;42209;6.376;-10.782;2023-09-08T10:09:51;23.10;86.40
56300;DHT22;42209;6.376;-10.782;2023-09-08T10:12:20;23.20;86.80
56300;DHT22;42209;6.376;-10.782;2023-09-08T10:14:50;23.30;87.20
56300;DHT22;42209;6.376;-10.782;2023-09-08T10:17:33;23.30;87.40
56300;DHT22;42209;6.376;-10.782;2023-09-08T10:20:08;23.40;87.70
56300;DHT22;42209;6.376;-10.782;2023-09-08T10:22:41;23.40;88.20
56300;DHT22;42209;6.376;-10.782;2023-09-08T10:25:12;23.50;88.40
56300;DHT22;42209;6.376;-10.782;2023-09-08T10:27:43;23.60;89.00
56300;DHT22;42209;6.376;-10.782;2023-09-08T10:30:12;23.60;88.10
56300;DHT22;42209;6.376;-10.782;2023-09-08T10:32:43;23.40;81.40
56300;DHT22;42209;6.376;-10.782;2023-09-08T10:35:12;23.10;77.20
56300;DHT22;42209;6.376;-10.782;2023-09-08T10:37:40;22.90;73.80
56300;DHT22;42209;6.376;-10.782;2023-09-08T10:40:25;22.70;72.60
56300;DHT22;42209;6.376;-10.782;2023-09-08T10:43:08;22.70;77.10
56300;DHT22;42209;6.376;-10.782;2023-09-08T10:45:36;22.80;81.70
56300;DHT22;42209;6.376;-10.782;2023-09-08T10:48:06;23.00;83.90
56300;DHT22;42209;6.376;-10.782;2023-09-08T10:50:39;23.00;85.00
56300;DHT22;42209;6.376;-10.782;2023-09-08T10:53:17;23.10;86.10
56300;DHT22;42209;6.376;-10.782;2023-09-08T10:55:50;23.20;87.20
56300;DHT22;42209;6.376;-10.782;2023-09-08T10:58:39;23.30;88.10
56300;DHT22;42209;6.376;-10.782;2023-09-08T11:01:07;23.30;88.90
56300;DHT22;42209;6.376;-10.782;2023-09-08T11:06:12;23.40;89.50
56300;DHT22;42209;6.376;-10.782;2023-09-08T11:08:44;23.50;89.70
56300;DHT22;42209;6.376;-10.782;2023-09-08T11:11:22;23.60;89.80
56300;DHT22;42209;6.376;-10.782;2023-09-08T11:13:55;23.60;89.20
56300;DHT22;42209;6.376;-10.782;2023-09-08T11:16:28;23.70;90.00
56300;DHT22;42209;6.376;-10.782;2023-09-08T11:19:14;23.70;85.40
56300;DHT22;42209;6.376;-10.782;2023-09-08T11:21:44;23.40;80.30
56300;DHT22;42209;6.376;-10.782;2023-09-08T11:24:13;23.20;76.50
56300;DHT22;42209;6.376;-10.782;2023-09-08T11:26:43;22.90;73.70
56300;DHT22;42209;6.376;-10.782;2023-09-08T11:29:12;22.70;72.00
56300;DHT22;42209;6.376;-10.782;2023-09-08T11:31:41;22.60;70.10
56300;DHT22;42209;6.376;-10.782;2023-09-08T11:34:11;22.50;68.80
56300;DHT22;42209;6.376;-10.782;2023-09-08T11:36:46;22.40;68.70
56300;DHT22;42209;6.376;-10.782;2023-09-08T11:39:15;22.50;71.00
56300;DHT22;42209;6.376;-10.782;2023-09-08T11:41:44;22.60;76.90
56300;DHT22;42209;6.376;-10.782;2023-09-08T11:44:17;22.80;80.40
56300;DHT22;42209;6.376;-10.782;2023-09-08T11:46:47;23.00;82.60
56300;DHT22;42209;6.376;-10.782;2023-09-08T11:49:19;23.10;83.90
56300;DHT22;42209;6.376;-10.782;2023-09-08T11:51:48;23.20;85.60
56300;DHT22;42209;6.376;-10.782;2023-09-08T11:54:21;23.30;86.80
56300;DHT22;42209;6.376;-10.782;2023-09-08T11:56:57;23.40;87.30
56300;DHT22;42209;6.376;-10.782;2023-09-08T11:59:31;23.40;88.70
56300;DHT22;42209;6.376;-10.782;2023-09-08T12:02:01;23.50;89.00
56300;DHT22;42209;6.376;-10.782;2023-09-08T12:04:36;23.50;90.10
56300;DHT22;42209;6.376;-10.782;2023-09-08T12:07:05;23.60;90.10
56300;DHT22;42209;6.376;-10.782;2023-09-08T12:09:34;23.70;90.20
56300;DHT22;42209;6.376;-10.782;2023-09-08T12:12:03;23.70;90.50
56300;DHT22;42209;6.376;-10.782;2023-09-08T12:14:39;23.80;90.90
56300;DHT22;42209;6.376;-10.782;2023-09-08T12:17:12;23.80;91.30
56300;DHT22;42209;6.376;-10.782;2023-09-08T12:19:43;23.70;85.60
56300;DHT22;42209;6.376;-10.782;2023-09-08T12:22:11;23.40;81.30
56300;DHT22;42209;6.376;-10.782;2023-09-08T12:27:24;22.80;74.50
56300;DHT22;42209;6.376;-10.782;2023-09-08T12:29:58;22.80;73.90
56300;DHT22;42209;6.376;-10.782;2023-09-08T12:32:32;22.90;79.70
56300;DHT22;42209;6.376;-10.782;2023-09-08T12:35:04;23.00;82.80
56300;DHT22;42209;6.376;-10.782;2023-09-08T12:37:33;23.20;85.20
56300;DHT22;42209;6.376;-10.782;2023-09-08T12:40:02;23.30;86.40
56300;DHT22;42209;6.376;-10.782;2023-09-08T12:42:31;23.40;87.80
56300;DHT22;42209;6.376;-10.782;2023-09-08T12:45:10;23.40;88.80
56300;DHT22;42209;6.376;-10.782;2023-09-08T12:47:47;23.50;89.00
56300;DHT22;42209;6.376;-10.782;2023-09-08T12:50:18;23.60;89.20
56300;DHT22;42209;6.376;-10.782;2023-09-08T12:52:47;23.70;89.70
56300;DHT22;42209;6.376;-10.782;2023-09-08T12:55:16;23.70;90.10
56300;DHT22;42209;6.376;-10.782;2023-09-08T12:57:49;23.80;90.30
56300;DHT22;42209;6.376;-10.782;2023-09-08T13:00:20;23.90;90.40
56300;DHT22;42209;6.376;-10.782;2023-09-08T13:02:49;23.80;85.00
56300;DHT22;42209;6.376;-10.782;2023-09-08T13:05:18;23.60;79.80
56300;DHT22;42209;6.376;-10.782;2023-09-08T13:07:47;23.30;77.60
56300;DHT22;42209;6.376;-10.782;2023-09-08T13:10:16;23.10;74.90
56300;DHT22;42209;6.376;-10.782;2023-09-08T13:12:45;23.00;72.80
56300;DHT22;42209;6.376;-10.782;2023-09-08T13:15:15;22.80;71.20
56300;DHT22;42209;6.376;-10.782;2023-09-08T13:18:03;22.80;69.90
56300;DHT22;42209;6.376;-10.782;2023-09-08T13:20:32;22.70;68.70
56300;DHT22;42209;6.376;-10.782;2023-09-08T13:23:01;22.60;67.70
56300;DHT22;42209;6.376;-10.782;2023-09-08T13:25:36;22.60;67.40
56300;DHT22;42209;6.376;-10.782;2023-09-08T13:28:04;22.60;66.60
56300;DHT22;42209;6.376;-10.782;2023-09-08T13:30:33;22.50;66.00
56300;DHT22;42209;6.376;-10.782;2023-09-08T13:33:08;22.40;64.60
56300;DHT22;42209;6.376;-10.782;2023-09-08T13:35:37;22.40;64.30
56300;DHT22;42209;6.376;-10.782;2023-09-08T13:38:05;22.40;64.10
56300;DHT22;42209;6.376;-10.782;2023-09-08T13:40:34;22.40;63.40
56300;DHT22;42209;6.376;-10.782;2023-09-08T13:43:03;22.20;63.10
56300;DHT22;42209;6.376;-10.782;2023-09-08T13:45:32;22.20;62.60
56300;DHT22;42209;6.376;-10.782;2023-09-08T13:48:02;22.20;61.90
56300;DHT22;42209;6.376;-10.782;2023-09-08T13:50:32;22.20;61.30
56300;DHT22;42209;6.376;-10.782;2023-09-08T13:53:01;22.20;63.20
56300;DHT22;42209;6.376;-10.782;2023-09-08T13:55:31;22.30;68.60
56300;DHT22;42209;6.376;-10.782;2023-09-08T13:58:02;22.60;73.00
56300;DHT22;42209;6.376;-10.782;2023-09-08T14:00:37;22.80;75.00
56300;DHT22;42209;6.376;-10.782;2023-09-08T14:03:06;22.90;77.80
56300;DHT22;42209;6.376;-10.782;2023-09-08T14:05:40;23.10;79.30
56300;DHT22;42209;6.376;-10.782;2023-09-08T14:08:12;23.10;81.20
56300;DHT22;42209;6.376;-10.782;2023-09-08T14:10:54;23.20;81.80
56300;DHT22;42209;6.376;-10.782;2023-09-08T14:13:25;23.30;82.90
56300;DHT22;42209;6.376;-10.782;2023-09-08T14:15:54;23.40;83.50
56300;DHT22;42209;6.376;-10.782;2023-09-08T14:18:23;23.50;84.60
56300;DHT22;42209;6.376;-10.782;2023-09-08T14:20:52;23.60;85.10
56300;DHT22;42209;6.376;-10.782;2023-09-08T14:23:21;23.70;85.70
56300;DHT22;42209;6.376;-10.782;2023-09-08T14:28:04;23.60;77.90
56300;DHT22;42209;6.376;-10.782;2023-09-08T14:30:34;23.60;81.00
56300;DHT22;42209;6.376;-10.782;2023-09-08T14:33:05;23.60;84.30
56300;DHT22;42209;6.376;-10.782;2023-09-08T14:35:35;23.70;86.40
56300;DHT22;42209;6.376;-10.782;2023-09-08T14:38:03;23.70;87.50
56300;DHT22;42209;6.376;-10.782;2023-09-08T14:40:34;23.80;85.60
56300;DHT22;42209;6.376;-10.782;2023-09-08T14:43:03;23.60;79.40
56300;DHT22;42209;6.376;-10.782;2023-09-08T14:45:31;23.30;76.00
56300;DHT22;42209;6.376;-10.782;2023-09-08T14:48:02;23.20;73.20
56300;DHT22;42209;6.376;-10.782;2023-09-08T14:50:34;23.10;71.50
56300;DHT22;42209;6.376;-10.782;2023-09-08T14:53:02;22.90;70.10
56300;DHT22;42209;6.376;-10.782;2023-09-08T14:55:32;22.80;68.20
56300;DHT22;42209;6.376;-10.782;2023-09-08T14:58:01;22.70;67.40
56300;DHT22;42209;6.376;-10.782;2023-09-08T15:00:29;22.70;66.50
56300;DHT22;42209;6.376;-10.782;2023-09-08T15:02:58;22.60;65.40
56300;DHT22;42209;6.376;-10.782;2023-09-08T15:05:26;22.60;64.60
56300;DHT22;42209;6.376;-10.782;2023-09-08T15:07:55;22.50;63.40
56300;DHT22;42209;6.376;-10.782;2023-09-08T15:10:23;22.50;63.30
56300;DHT22;42209;6.376;-10.782;2023-09-08T15:12:52;22.40;63.70
56300;DHT22;42209;6.376;-10.782;2023-09-08T15:15:20;22.50;62.60
56300;DHT22;42209;6.376;-10.782;2023-09-08T15:17:52;22.40;61.80
56300;DHT22;42209;6.376;-10.782;2023-09-08T15:20:24;22.30;61.00
56300;DHT22;42209;6.376;-10.782;2023-09-08T15:22:53;22.30;60.60
56300;DHT22;42209;6.376;-10.782;2023-09-08T15:25:22;22.30;61.00
56300;DHT22;42209;6.376;-10.782;2023-09-08T15:27:52;22.30;60.40
56300;DHT22;42209;6.376;-10.782;2023-09-08T15:30:20;22.30;60.70
56300;DHT22;42209;6.376;-10.782;2023-09-08T15:32:48;22.30;60.90
56300;DHT22;42209;6.376;-10.782;2023-09-08T15:35:17;22.30;60.90
56300;DHT22;42209;6.376;-10.782;2023-09-08T15:37:45;22.20;60.20
56300;DHT22;42209;6.376;-10.782;2023-09-08T15:40:30;22.20;60.10
56300;DHT22;42209;6.376;-10.782;2023-09-08T15:43:28;22.20;59.40
56300;DHT22;42209;6.376;-10.782;2023-09-08T15:45:56;22.20;58.70
56300;DHT22;42209;6.376;-10.782;2023-09-08T15:48:25;22.10;58.30